sensor_id;sensor_type;location;lat;lon;timestamp;P1;durP1;ratioP1;P2;durP2;ratioP2
10309;SDS011;5200;43.236;27.986;2023-03-21T00:01:40;26.88;;;10.43;;
10309;SDS011;5200;43.236;27.986;2023-03-21T00:04:07;19.60;;;8.13;;
10309;SDS011;5200;43.236;27.986;2023-03-21T00:06:35;21.05;;;8.73;;
10309;SDS011;5200;43.236;27.986;2023-03-21T00:09:02;19.45;;;8.98;;
10309;SDS011;5200;43.236;27.986;2023-03-21T00:11:30;27.70;;;9.30;;
10309;SDS011;5200;43.236;27.986;2023-03-21T00:13:56;21.52;;;8.45;;
10309;SDS011;5200;43.236;27.986;2023-03-21T00:16:26;26.52;;;8.35;;
10309;SDS011;5200;43.236;27.986;2023-03-21T00:18:55;29.08;;;8.20;;
10309;SDS011;5200;43.236;27.986;2023-03-21T00:21:23;22.80;;;8.70;;
10309;SDS011;5200;43.236;27.986;2023-03-21T00:23:54;24.33;;;7.72;;
10309;SDS011;5200;43.236;27.986;2023-03-21T00:26:21;18.95;;;7.30;;
10309;SDS011;5200;43.236;27.986;2023-03-21T00:28:47;24.85;;;8.40;;
10309;SDS011;5200;43.236;27.986;2023-03-21T00:31:15;14.55;;;7.45;;
10309;SDS011;5200;43.236;27.986;2023-03-21T00:33:42;23.50;;;7.50;;
10309;SDS011;5200;43.236;27.986;2023-03-21T00:36:10;18.52;;;7.43;;
10309;SDS011;5200;43.236;27.986;2023-03-21T00:38:38;20.08;;;8.45;;
10309;SDS011;5200;43.236;27.986;2023-03-21T00:41:06;17.80;;;8.35;;
10309;SDS011;5200;43.236;27.986;2023-03-21T00:43:35;22.10;;;7.45;;
10309;SDS011;5200;43.236;27.986;2023-03-21T00:46:02;22.35;;;8.75;;
10309;SDS011;5200;43.236;27.986;2023-03-21T00:48:29;17.77;;;7.50;;
10309;SDS011;5200;43.236;27.986;2023-03-21T00:50:56;21.77;;;7.80;;
10309;SDS011;5200;43.236;27.986;2023-03-21T00:53:24;18.27;;;8.23;;
10309;SDS011;5200;43.236;27.986;2023-03-21T00:55:51;28.15;;;6.97;;
10309;SDS011;5200;43.236;27.986;2023-03-21T00:58:20;16.00;;;7.38;;
10309;SDS011;5200;43.236;27.986;2023-03-21T01:00:46;18.63;;;7.20;;
10309;SDS011;5200;43.236;27.986;2023-03-21T01:03:14;19.98;;;7.65;;
10309;SDS011;5200;43.236;27.986;2023-03-21T01:05:43;13.95;;;7.25;;
10309;SDS011;5200;43.236;27.986;2023-03-21T01:11:00;24.10;;;7.13;;
10309;SDS011;5200;43.236;27.986;2023-03-21T01:13:29;46.60;;;20.25;;
10309;SDS011;5200;43.236;27.986;2023-03-21T01:15:56;32.13;;;17.00;;
10309;SDS011;5200;43.236;27.986;2023-03-21T01:18:25;28.25;;;13.25;;
10309;SDS011;5200;43.236;27.986;2023-03-21T01:20:53;23.65;;;8.57;;
10309;SDS011;5200;43.236;27.986;2023-03-21T01:23:20;18.13;;;7.65;;
10309;SDS011;5200;43.236;27.986;2023-03-21T01:25:48;30.27;;;7.35;;
10309;SDS011;5200;43.236;27.986;2023-03-21T01:28:15;19.95;;;7.80;;
10309;SDS011;5200;43.236;27.986;2023-03-21T01:30:46;20.38;;;8.13;;
10309;SDS011;5200;43.236;27.986;2023-03-21T01:33:15;18.73;;;7.70;;
10309;SDS011;5200;43.236;27.986;2023-03-21T01:35:43;17.40;;;7.30;;
10309;SDS011;5200;43.236;27.986;2023-03-21T01:38:10;22.10;;;8.60;;
10309;SDS011;5200;43.236;27.986;2023-03-21T01:40:38;25.65;;;8.00;;
10309;SDS011;5200;43.236;27.986;2023-03-21T01:43:10;22.83;;;7.70;;
10309;SDS011;5200;43.236;27.986;2023-03-21T01:46:07;31.15;;;8.55;;
10309;SDS011;5200;43.236;27.986;2023-03-21T01:48:45;19.38;;;7.63;;
10309;SDS011;5200;43.236;27.986;2023-03-21T01:51:16;21.20;;;9.07;;
10309;SDS011;5200;43.236;27.986;2023-03-21T01:53:44;19.58;;;7.22;;
10309;SDS011;5200;43.236;27.986;2023-03-21T01:56:15;28.67;;;9.25;;
10309;SDS011;5200;43.236;27.986;2023-03-21T01:58:47;18.50;;;8.45;;
10309;SDS011;5200;43.236;27.986;2023-03-21T02:01:17;20.55;;;8.25;;
10309;SDS011;5200;43.236;27.986;2023-03-21T02:03:47;19.17;;;7.40;;
10309;SDS011;5200;43.236;27.986;2023-03-21T02:06:16;14.75;;;7.47;;
10309;SDS011;5200;43.236;27.986;2023-03-21T02:08:55;15.13;;;7.18;;
10309;SDS011;5200;43.236;27.986;2023-03-21T02:11:25;22.13;;;8.43;;
10309;SDS011;5200;43.236;27.986;2023-03-21T02:13:53;22.75;;;7.55;;
10309;SDS011;5200;43.236;27.986;2023-03-21T02:16:24;20.08;;;7.82;;
10309;SDS011;5200;43.236;27.986;2023-03-21T02:18:59;18.73;;;7.30;;
10309;SDS011;5200;43.236;27.986;2023-03-21T02:21:44;20.63;;;7.72;;
10309;SDS011;5200;43.236;27.986;2023-03-21T02:24:29;14.88;;;8.05;;
10309;SDS011;5200;43.236;27.986;2023-03-21T02:27:13;20.00;;;7.40;;
10309;SDS011;5200;43.236;27.986;2023-03-21T02:35:53;20.13;;;7.60;;
10309;SDS011;5200;43.236;27.986;2023-03-21T02:38:38;17.23;;;7.43;;
10309;SDS011;5200;43.236;27.986;2023-03-21T02:41:09;17.95;;;7.43;;
10309;SDS011;5200;43.236;27.986;2023-03-21T02:43:42;21.00;;;8.05;;
10309;SDS011;5200;43.236;27.986;2023-03-21T02:46:13;25.25;;;8.82;;
10309;SDS011;5200;43.236;27.986;2023-03-21T02:48:45;19.58;;;7.80;;
10309;SDS011;5200;43.236;27.986;2023-03-21T02:51:18;18.08;;;7.18;;
10309;SDS011;5200;43.236;27.986;2023-03-21T02:53:50;25.05;;;7.47;;
10309;SDS011;5200;43.236;27.986;2023-03-21T02:56:20;12.07;;;6.85;;
10309;SDS011;5200;43.236;27.986;2023-03-21T02:58:50;22.10;;;8.02;;
10309;SDS011;5200;43.236;27.986;2023-03-21T03:01:18;21.05;;;8.43;;
10309;SDS011;5200;43.236;27.986;2023-03-21T03:03:45;14.48;;;7.00;;
10309;SDS011;5200;43.236;27.986;2023-03-21T03:06:13;25.40;;;8.02;;
10309;SDS011;5200;43.236;27.986;2023-03-21T03:08:53;19.80;;;7.10;;
10309;SDS011;5200;43.236;27.986;2023-03-21T03:11:30;15.13;;;6.93;;
10309;SDS011;5200;43.236;27.986;2023-03-21T03:14:09;24.70;;;7.50;;
10309;SDS011;5200;43.236;27.986;2023-03-21T03:16:51;17.90;;;7.88;;
10309;SDS011;5200;43.236;27.986;2023-03-21T03:19:25;22.23;;;7.82;;
10309;SDS011;5200;43.236;27.986;2023-03-21T03:21:55;25.33;;;8.40;;
10309;SDS011;5200;43.236;27.986;2023-03-21T03:24:28;14.80;;;7.95;;
10309;SDS011;5200;43.236;27.986;2023-03-21T03:27:01;16.23;;;7.75;;
10309;SDS011;5200;43.236;27.986;2023-03-21T03:29:32;22.48;;;8.05;;
10309;SDS011;5200;43.236;27.986;2023-03-21T03:32:02;19.67;;;7.65;;
10309;SDS011;5200;43.236;27.986;2023-03-21T03:34:32;16.42;;;7.88;;
10309;SDS011;5200;43.236;27.986;2023-03-21T03:37:04;13.38;;;8.20;;
10309;SDS011;5200;43.236;27.986;2023-03-21T03:39:36;15.50;;;8.65;;
10309;SDS011;5200;43.236;27.986;2023-03-21T03:42:07;14.98;;;8.18;;
10309;SDS011;5200;43.236;27.986;2023-03-21T03:44:40;13.75;;;7.57;;
10309;SDS011;5200;43.236;27.986;2023-03-21T03:47:08;18.92;;;8.70;;
10309;SDS011;5200;43.236;27.986;2023-03-21T03:49:37;12.35;;;7.80;;
10309;SDS011;5200;43.236;27.986;2023-03-21T03:52:09;14.00;;;7.57;;
10309;SDS011;5200;43.236;27.986;2023-03-21T03:54:41;14.25;;;9.23;;
10309;SDS011;5200;43.236;27.986;2023-03-21T03:57:10;23.60;;;9.52;;
10309;SDS011;5200;43.236;27.986;2023-03-21T03:59:39;16.35;;;9.68;;
10309;SDS011;5200;43.236;27.986;2023-03-21T04:02:07;14.65;;;9.15;;
10309;SDS011;5200;43.236;27.986;2023-03-21T04:04:35;18.58;;;9.18;;
10309;SDS011;5200;43.236;27.986;2023-03-21T04:07:02;19.55;;;8.75;;
10309;SDS011;5200;43.236;27.986;2023-03-21T04:09:30;20.17;;;9.85;;
10309;SDS011;5200;43.236;27.986;2023-03-21T04:11:59;19.35;;;9.68;;
10309;SDS011;5200;43.236;27.986;2023-03-21T04:14:26;21.27;;;9.65;;
10309;SDS011;5200;43.236;27.986;2023-03-21T04:16:52;20.00;;;10.68;;
10309;SDS011;5200;43.236;27.986;2023-03-21T04:19:19;21.95;;;10.27;;
10309;SDS011;5200;43.236;27.986;2023-03-21T04:21:46;20.38;;;8.85;;
10309;SDS011;5200;43.236;27.986;2023-03-21T04:24:13;17.95;;;9.18;;
10309;SDS011;5200;43.236;27.986;2023-03-21T04:26:41;22.05;;;9.27;;
10309;SDS011;5200;43.236;27.986;2023-03-21T04:29:09;16.50;;;9.60;;
10309;SDS011;5200;43.236;27.986;2023-03-21T04:31:36;18.40;;;10.40;;
10309;SDS011;5200;43.236;27.986;2023-03-21T04:34:05;18.90;;;10.10;;
10309;SDS011;5200;43.236;27.986;2023-03-21T04:36:33;21.17;;;9.95;;
10309;SDS011;5200;43.236;27.986;2023-03-21T04:39:07;17.13;;;10.00;;
10309;SDS011;5200;43.236;27.986;2023-03-21T04:41:36;16.58;;;9.07;;
10309;SDS011;5200;43.236;27.986;2023-03-21T04:44:04;20.80;;;9.40;;
10309;SDS011;5200;43.236;27.986;2023-03-21T04:46:32;18.52;;;9.82;;
10309;SDS011;5200;43.236;27.986;2023-03-21T04:49:00;18.85;;;9.93;;
10309;SDS011;5200;43.236;27.986;2023-03-21T04:51:27;19.05;;;9.90;;
10309;SDS011;5200;43.236;27.986;2023-03-21T04:53:54;25.73;;;9.95;;
10309;SDS011;5200;43.236;27.986;2023-03-21T04:56:22;20.15;;;10.35;;
10309;SDS011;5200;43.236;27.986;2023-03-21T04:58:54;27.63;;;15.05;;
10309;SDS011;5200;43.236;27.986;2023-03-21T05:01:21;16.88;;;11.35;;
10309;SDS011;5200;43.236;27.986;2023-03-21T05:03:51;16.23;;;9.95;;
10309;SDS011;5200;43.236;27.986;2023-03-21T05:06:18;21.23;;;10.00;;
10309;SDS011;5200;43.236;27.986;2023-03-21T05:08:45;18.50;;;10.30;;
10309;SDS011;5200;43.236;27.986;2023-03-21T05:11:12;18.85;;;11.25;;
10309;SDS011;5200;43.236;27.986;2023-03-21T05:13:38;17.75;;;10.20;;
10309;SDS011;5200;43.236;27.986;2023-03-21T05:16:06;21.67;;;10.98;;
10309;SDS011;5200;43.236;27.986;2023-03-21T05:18:33;17.95;;;9.40;;
10309;SDS011;5200;43.236;27.986;2023-03-21T05:21:04;19.70;;;10.23;;
10309;SDS011;5200;43.236;27.986;2023-03-21T05:23:34;17.00;;;9.98;;
10309;SDS011;5200;43.236;27.986;2023-03-21T05:26:03;18.42;;;10.43;;
10309;SDS011;5200;43.236;27.986;2023-03-21T05:28:31;17.52;;;10.70;;
10309;SDS011;5200;43.236;27.986;2023-03-21T05:31:00;24.13;;;11.13;;
10309;SDS011;5200;43.236;27.986;2023-03-21T05:33:28;22.20;;;11.02;;
10309;SDS011;5200;43.236;27.986;2023-03-21T05:35:55;20.40;;;10.27;;
10309;SDS011;5200;43.236;27.986;2023-03-21T05:38:23;22.52;;;11.00;;
10309;SDS011;5200;43.236;27.986;2023-03-21T05:40:50;15.35;;;11.10;;
10309;SDS011;5200;43.236;27.986;2023-03-21T05:43:19;28.60;;;12.38;;
10309;SDS011;5200;43.236;27.986;2023-03-21T05:45:46;19.60;;;12.43;;
10309;SDS011;5200;43.236;27.986;2023-03-21T05:48:13;24.75;;;12.10;;
10309;SDS011;5200;43.236;27.986;2023-03-21T05:50:40;19.67;;;12.20;;
10309;SDS011;5200;43.236;27.986;2023-03-21T05:53:07;33.17;;;13.68;;
10309;SDS011;5200;43.236;27.986;2023-03-21T05:55:35;24.45;;;13.18;;
10309;SDS011;5200;43.236;27.986;2023-03-21T05:58:02;20.75;;;11.25;;
10309;SDS011;5200;43.236;27.986;2023-03-21T06:00:30;29.75;;;12.80;;
10309;SDS011;5200;43.236;27.986;2023-03-21T06:02:57;29.13;;;13.05;;
10309;SDS011;5200;43.236;27.986;2023-03-21T06:05:23;29.33;;;13.02;;
10309;SDS011;5200;43.236;27.986;2023-03-21T06:07:50;30.02;;;11.60;;
10309;SDS011;5200;43.236;27.986;2023-03-21T06:10:17;24.75;;;11.45;;
10309;SDS011;5200;43.236;27.986;2023-03-21T06:12:45;24.15;;;11.60;;
10309;SDS011;5200;43.236;27.986;2023-03-21T06:15:12;20.90;;;13.35;;
10309;SDS011;5200;43.236;27.986;2023-03-21T06:17:39;16.40;;;11.23;;
10309;SDS011;5200;43.236;27.986;2023-03-21T06:20:09;24.33;;;12.30;;
10309;SDS011;5200;43.236;27.986;2023-03-21T06:22:37;22.20;;;12.50;;
10309;SDS011;5200;43.236;27.986;2023-03-21T06:25:04;29.95;;;12.23;;
10309;SDS011;5200;43.236;27.986;2023-03-21T06:27:32;22.80;;;11.93;;
10309;SDS011;5200;43.236;27.986;2023-03-21T06:30:00;26.75;;;12.15;;
10309;SDS011;5200;43.236;27.986;2023-03-21T06:32:28;22.92;;;11.30;;
10309;SDS011;5200;43.236;27.986;2023-03-21T06:34:55;24.67;;;12.68;;
10309;SDS011;5200;43.236;27.986;2023-03-21T06:37:22;31.55;;;13.52;;
10309;SDS011;5200;43.236;27.986;2023-03-21T06:39:50;30.70;;;12.95;;
10309;SDS011;5200;43.236;27.986;2023-03-21T06:42:17;27.17;;;12.93;;
10309;SDS011;5200;43.236;27.986;2023-03-21T06:44:44;31.75;;;13.85;;
10309;SDS011;5200;43.236;27.986;2023-03-21T06:47:12;24.67;;;14.48;;
10309;SDS011;5200;43.236;27.986;2023-03-21T06:49:39;29.80;;;13.02;;
10309;SDS011;5200;43.236;27.986;2023-03-21T06:52:07;24.83;;;11.88;;
10309;SDS011;5200;43.236;27.986;2023-03-21T06:54:34;28.88;;;12.25;;
10309;SDS011;5200;43.236;27.986;2023-03-21T06:57:01;26.40;;;12.52;;
10309;SDS011;5200;43.236;27.986;2023-03-21T06:59:28;27.85;;;13.90;;
10309;SDS011;5200;43.236;27.986;2023-03-21T07:01:55;26.67;;;11.88;;
10309;SDS011;5200;43.236;27.986;2023-03-21T07:04:23;30.55;;;12.98;;
10309;SDS011;5200;43.236;27.986;2023-03-21T07:06:51;23.88;;;12.32;;
10309;SDS011;5200;43.236;27.986;2023-03-21T07:09:17;23.73;;;12.80;;
10309;SDS011;5200;43.236;27.986;2023-03-21T07:11:48;27.25;;;12.23;;
10309;SDS011;5200;43.236;27.986;2023-03-21T07:14:17;38.75;;;12.63;;
10309;SDS011;5200;43.236;27.986;2023-03-21T07:16:44;27.33;;;11.88;;
10309;SDS011;5200;43.236;27.986;2023-03-21T07:19:11;22.17;;;13.55;;
10309;SDS011;5200;43.236;27.986;2023-03-21T07:21:39;25.73;;;13.75;;
10309;SDS011;5200;43.236;27.986;2023-03-21T07:24:06;22.27;;;13.27;;
10309;SDS011;5200;43.236;27.986;2023-03-21T07:26:33;22.70;;;11.43;;
10309;SDS011;5200;43.236;27.986;2023-03-21T07:29:00;20.95;;;11.80;;
10309;SDS011;5200;43.236;27.986;2023-03-21T07:31:27;21.88;;;12.80;;
10309;SDS011;5200;43.236;27.986;2023-03-21T07:33:54;27.65;;;13.77;;
10309;SDS011;5200;43.236;27.986;2023-03-21T07:36:21;23.88;;;11.15;;
10309;SDS011;5200;43.236;27.986;2023-03-21T07:38:49;24.80;;;12.15;;
10309;SDS011;5200;43.236;27.986;2023-03-21T07:41:16;19.38;;;12.82;;
10309;SDS011;5200;43.236;27.986;2023-03-21T07:43:42;27.25;;;13.05;;
10309;SDS011;5200;43.236;27.986;2023-03-21T07:46:09;26.90;;;14.98;;
10309;SDS011;5200;43.236;27.986;2023-03-21T07:48:36;30.70;;;16.85;;
10309;SDS011;5200;43.236;27.986;2023-03-21T07:51:03;23.70;;;15.80;;
10309;SDS011;5200;43.236;27.986;2023-03-21T07:53:30;26.95;;;15.82;;
10309;SDS011;5200;43.236;27.986;2023-03-21T07:55:58;23.55;;;14.45;;
10309;SDS011;5200;43.236;27.986;2023-03-21T07:58:25;27.60;;;14.77;;
10309;SDS011;5200;43.236;27.986;2023-03-21T08:00:52;26.63;;;14.82;;
10309;SDS011;5200;43.236;27.986;2023-03-21T08:03:19;29.88;;;16.00;;
10309;SDS011;5200;43.236;27.986;2023-03-21T08:05:48;32.70;;;16.33;;
10309;SDS011;5200;43.236;27.986;2023-03-21T08:08:15;28.27;;;14.10;;
10309;SDS011;5200;43.236;27.986;2023-03-21T08:10:42;35.85;;;16.30;;
10309;SDS011;5200;43.236;27.986;2023-03-21T08:13:10;28.27;;;15.82;;
10309;SDS011;5200;43.236;27.986;2023-03-21T08:15:37;32.10;;;16.42;;
10309;SDS011;5200;43.236;27.986;2023-03-21T08:18:06;46.17;;;16.55;;
10309;SDS011;5200;43.236;27.986;2023-03-21T08:20:33;39.83;;;16.60;;
10309;SDS011;5200;43.236;27.986;2023-03-21T08:23:00;32.17;;;17.05;;
10309;SDS011;5200;43.236;27.986;2023-03-21T08:25:27;30.02;;;15.73;;
10309;SDS011;5200;43.236;27.986;2023-03-21T08:27:54;39.15;;;15.57;;
10309;SDS011;5200;43.236;27.986;2023-03-21T08:30:23;34.08;;;17.48;;
10309;SDS011;5200;43.236;27.986;2023-03-21T08:32:54;148.65;;;20.73;;
10309;SDS011;5200;43.236;27.986;2023-03-21T08:35:22;53.90;;;16.33;;
10309;SDS011;5200;43.236;27.986;2023-03-21T08:37:50;27.40;;;16.17;;
10309;SDS011;5200;43.236;27.986;2023-03-21T08:40:17;55.92;;;17.08;;
10309;SDS011;5200;43.236;27.986;2023-03-21T08:42:44;44.90;;;16.85;;
10309;SDS011;5200;43.236;27.986;2023-03-21T08:45:12;36.38;;;16.10;;
10309;SDS011;5200;43.236;27.986;2023-03-21T08:47:41;40.53;;;17.08;;
10309;SDS011;5200;43.236;27.986;2023-03-21T08:50:08;37.95;;;16.92;;
10309;SDS011;5200;43.236;27.986;2023-03-21T08:52:38;42.78;;;16.95;;
10309;SDS011;5200;43.236;27.986;2023-03-21T08:55:05;37.78;;;17.10;;
10309;SDS011;5200;43.236;27.986;2023-03-21T08:57:33;50.05;;;15.80;;
10309;SDS011;5200;43.236;27.986;2023-03-21T09:00:00;27.80;;;15.90;;
10309;SDS011;5200;43.236;27.986;2023-03-21T09:02:31;51.15;;;16.75;;
10309;SDS011;5200;43.236;27.986;2023-03-21T09:04:59;42.13;;;14.77;;
10309;SDS011;5200;43.236;27.986;2023-03-21T09:07:26;77.80;;;16.20;;
10309;SDS011;5200;43.236;27.986;2023-03-21T09:09:53;37.90;;;14.88;;
10309;SDS011;5200;43.236;27.986;2023-03-21T09:12:19;32.97;;;15.52;;
10309;SDS011;5200;43.236;27.986;2023-03-21T09:14:46;36.63;;;15.00;;
10309;SDS011;5200;43.236;27.986;2023-03-21T09:17:14;28.95;;;14.80;;
10309;SDS011;5200;43.236;27.986;2023-03-21T09:19:41;45.45;;;16.42;;
10309;SDS011;5200;43.236;27.986;2023-03-21T09:22:09;31.02;;;15.35;;
10309;SDS011;5200;43.236;27.986;2023-03-21T09:24:42;39.17;;;15.63;;
10309;SDS011;5200;43.236;27.986;2023-03-21T09:27:11;39.30;;;15.95;;
10309;SDS011;5200;43.236;27.986;2023-03-21T09:29:39;61.25;;;17.40;;
10309;SDS011;5200;43.236;27.986;2023-03-21T09:32:07;34.78;;;16.92;;
10309;SDS011;5200;43.236;27.986;2023-03-21T09:34:35;51.53;;;15.88;;
10309;SDS011;5200;43.236;27.986;2023-03-21T09:37:05;48.45;;;18.13;;
10309;SDS011;5200;43.236;27.986;2023-03-21T09:39:35;43.88;;;18.00;;
10309;SDS011;5200;43.236;27.986;2023-03-21T09:42:06;37.22;;;18.13;;
10309;SDS011;5200;43.236;27.986;2023-03-21T09:44:47;41.35;;;19.23;;
10309;SDS011;5200;43.236;27.986;2023-03-21T09:47:26;44.85;;;19.10;;
10309;SDS011;5200;43.236;27.986;2023-03-21T09:49:57;32.53;;;17.77;;
10309;SDS011;5200;43.236;27.986;2023-03-21T09:52:30;44.13;;;18.85;;
10309;SDS011;5200;43.236;27.986;2023-03-21T09:55:08;38.30;;;19.73;;
10309;SDS011;5200;43.236;27.986;2023-03-21T09:57:44;39.58;;;18.38;;
10309;SDS011;5200;43.236;27.986;2023-03-21T10:00:13;35.53;;;18.60;;
10309;SDS011;5200;43.236;27.986;2023-03-21T10:02:46;37.53;;;19.40;;
10309;SDS011;5200;43.236;27.986;2023-03-21T10:05:18;38.42;;;20.25;;
10309;SDS011;5200;43.236;27.986;2023-03-21T10:07:49;38.15;;;18.98;;
10309;SDS011;5200;43.236;27.986;2023-03-21T10:10:21;34.22;;;17.25;;
10309;SDS011;5200;43.236;27.986;2023-03-21T10:12:53;31.48;;;18.63;;
10309;SDS011;5200;43.236;27.986;2023-03-21T10:15:22;36.00;;;17.80;;
10309;SDS011;5200;43.236;27.986;2023-03-21T10:17:52;33.20;;;18.33;;
10309;SDS011;5200;43.236;27.986;2023-03-21T10:20:24;35.00;;;18.30;;
10309;SDS011;5200;43.236;27.986;2023-03-21T10:22:52;46.13;;;17.10;;
10309;SDS011;5200;43.236;27.986;2023-03-21T10:25:23;32.38;;;17.38;;
10309;SDS011;5200;43.236;27.986;2023-03-21T10:27:55;39.17;;;16.35;;
10309;SDS011;5200;43.236;27.986;2023-03-21T10:30:25;31.73;;;16.45;;
10309;SDS011;5200;43.236;27.986;2023-03-21T10:32:58;32.72;;;15.88;;
10309;SDS011;5200;43.236;27.986;2023-03-21T10:35:30;30.88;;;17.35;;
10309;SDS011;5200;43.236;27.986;2023-03-21T10:38:01;34.05;;;16.52;;
10309;SDS011;5200;43.236;27.986;2023-03-21T10:40:30;31.40;;;16.45;;
10309;SDS011;5200;43.236;27.986;2023-03-21T10:43:14;33.83;;;14.93;;
10309;SDS011;5200;43.236;27.986;2023-03-21T10:45:44;36.47;;;16.92;;
10309;SDS011;5200;43.236;27.986;2023-03-21T10:48:11;28.05;;;15.77;;
10309;SDS011;5200;43.236;27.986;2023-03-21T10:50:39;29.67;;;16.70;;
10309;SDS011;5200;43.236;27.986;2023-03-21T10:53:11;30.80;;;15.45;;
10309;SDS011;5200;43.236;27.986;2023-03-21T10:55:44;41.47;;;15.02;;
10309;SDS011;5200;43.236;27.986;2023-03-21T10:58:14;33.90;;;15.60;;
10309;SDS011;5200;43.236;27.986;2023-03-21T11:00:51;35.80;;;16.70;;
10309;SDS011;5200;43.236;27.986;2023-03-21T11:03:22;33.35;;;15.02;;
10309;SDS011;5200;43.236;27.986;2023-03-21T11:05:54;31.85;;;15.50;;
10309;SDS011;5200;43.236;27.986;2023-03-21T11:08:24;33.53;;;16.50;;
10309;SDS011;5200;43.236;27.986;2023-03-21T11:10:58;52.97;;;16.23;;
10309;SDS011;5200;43.236;27.986;2023-03-21T11:13:32;33.65;;;16.10;;
10309;SDS011;5200;43.236;27.986;2023-03-21T11:16:03;38.42;;;14.88;;
10309;SDS011;5200;43.236;27.986;2023-03-21T11:18:32;33.70;;;16.08;;
10309;SDS011;5200;43.236;27.986;2023-03-21T11:21:05;34.67;;;17.48;;
10309;SDS011;5200;43.236;27.986;2023-03-21T11:23:34;41.58;;;15.70;;
10309;SDS011;5200;43.236;27.986;2023-03-21T11:26:07;34.85;;;16.85;;
10309;SDS011;5200;43.236;27.986;2023-03-21T11:28:37;39.00;;;17.48;;
10309;SDS011;5200;43.236;27.986;2023-03-21T11:31:05;53.33;;;16.25;;
10309;SDS011;5200;43.236;27.986;2023-03-21T11:33:35;47.97;;;17.27;;
10309;SDS011;5200;43.236;27.986;2023-03-21T11:36:05;42.72;;;16.42;;
10309;SDS011;5200;43.236;27.986;2023-03-21T11:38:50;33.60;;;17.33;;
10309;SDS011;5200;43.236;27.986;2023-03-21T11:41:22;28.45;;;16.55;;
10309;SDS011;5200;43.236;27.986;2023-03-21T11:43:52;40.67;;;15.48;;
10309;SDS011;5200;43.236;27.986;2023-03-21T11:46:22;37.60;;;18.38;;
10309;SDS011;5200;43.236;27.986;2023-03-21T11:48:49;33.95;;;17.02;;
10309;SDS011;5200;43.236;27.986;2023-03-21T11:51:20;28.13;;;15.70;;
10309;SDS011;5200;43.236;27.986;2023-03-21T11:53:56;37.00;;;17.20;;
10309;SDS011;5200;43.236;27.986;2023-03-21T11:56:32;50.13;;;17.15;;
10309;SDS011;5200;43.236;27.986;2023-03-21T11:59:06;41.92;;;17.67;;
10309;SDS011;5200;43.236;27.986;2023-03-21T12:01:52;49.17;;;16.08;;
10309;SDS011;5200;43.236;27.986;2023-03-21T12:04:29;29.60;;;15.38;;
10309;SDS011;5200;43.236;27.986;2023-03-21T12:07:05;34.50;;;16.30;;
10309;SDS011;5200;43.236;27.986;2023-03-21T12:09:42;28.92;;;15.40;;
10309;SDS011;5200;43.236;27.986;2023-03-21T12:12:16;33.72;;;14.55;;
10309;SDS011;5200;43.236;27.986;2023-03-21T12:14:56;31.08;;;15.15;;
10309;SDS011;5200;43.236;27.986;2023-03-21T12:17:34;31.92;;;13.95;;
10309;SDS011;5200;43.236;27.986;2023-03-21T12:20:12;39.50;;;15.02;;
10309;SDS011;5200;43.236;27.986;2023-03-21T12:22:59;38.28;;;14.23;;
10309;SDS011;5200;43.236;27.986;2023-03-21T12:26:00;42.58;;;15.77;;
10309;SDS011;5200;43.236;27.986;2023-03-21T12:28:38;53.63;;;14.18;;
10309;SDS011;5200;43.236;27.986;2023-03-21T12:31:15;184.52;;;20.08;;
10309;SDS011;5200;43.236;27.986;2023-03-21T12:33:51;268.63;;;21.92;;
10309;SDS011;5200;43.236;27.986;2023-03-21T12:36:37;37.25;;;14.63;;
10309;SDS011;5200;43.236;27.986;2023-03-21T12:39:20;45.35;;;14.52;;
10309;SDS011;5200;43.236;27.986;2023-03-21T12:41:56;34.83;;;15.77;;
10309;SDS011;5200;43.236;27.986;2023-03-21T12:44:36;35.60;;;16.40;;
10309;SDS011;5200;43.236;27.986;2023-03-21T12:47:07;37.70;;;16.85;;
10309;SDS011;5200;43.236;27.986;2023-03-21T12:49:40;40.88;;;16.08;;
10309;SDS011;5200;43.236;27.986;2023-03-21T12:52:13;39.47;;;18.08;;
10309;SDS011;5200;43.236;27.986;2023-03-21T12:54:46;41.35;;;18.08;;
10309;SDS011;5200;43.236;27.986;2023-03-21T12:57:18;28.05;;;15.73;;
10309;SDS011;5200;43.236;27.986;2023-03-21T12:59:51;44.35;;;18.35;;
10309;SDS011;5200;43.236;27.986;2023-03-21T13:02:25;30.55;;;16.35;;
10309;SDS011;5200;43.236;27.986;2023-03-21T13:04:57;38.00;;;17.60;;
10309;SDS011;5200;43.236;27.986;2023-03-21T13:07:30;37.53;;;18.75;;
10309;SDS011;5200;43.236;27.986;2023-03-21T13:10:01;34.72;;;17.40;;
10309;SDS011;5200;43.236;27.986;2023-03-21T13:12:46;49.30;;;18.40;;
10309;SDS011;5200;43.236;27.986;2023-03-21T13:15:31;46.85;;;18.08;;
10309;SDS011;5200;43.236;27.986;2023-03-21T13:18:16;36.60;;;19.33;;
10309;SDS011;5200;43.236;27.986;2023-03-21T13:20:55;38.70;;;21.50;;
10309;SDS011;5200;43.236;27.986;2023-03-21T13:23:23;34.53;;;21.17;;
10309;SDS011;5200;43.236;27.986;2023-03-21T13:25:58;48.92;;;21.55;;
10309;SDS011;5200;43.236;27.986;2023-03-21T13:28:25;40.67;;;19.48;;
10309;SDS011;5200;43.236;27.986;2023-03-21T13:31:03;35.95;;;20.25;;
10309;SDS011;5200;43.236;27.986;2023-03-21T13:33:44;42.78;;;20.60;;
10309;SDS011;5200;43.236;27.986;2023-03-21T13:36:13;72.47;;;24.42;;
10309;SDS011;5200;43.236;27.986;2023-03-21T13:38:43;48.55;;;25.10;;
10309;SDS011;5200;43.236;27.986;2023-03-21T13:41:16;36.10;;;21.25;;
10309;SDS011;5200;43.236;27.986;2023-03-21T13:43:49;41.33;;;23.55;;
10309;SDS011;5200;43.236;27.986;2023-03-21T13:49:19;36.28;;;21.58;;
10309;SDS011;5200;43.236;27.986;2023-03-21T13:51:53;39.58;;;20.83;;
10309;SDS011;5200;43.236;27.986;2023-03-21T13:54:28;35.70;;;20.95;;
10309;SDS011;5200;43.236;27.986;2023-03-21T13:57:20;42.97;;;24.48;;
10309;SDS011;5200;43.236;27.986;2023-03-21T14:02:56;42.83;;;23.60;;
10309;SDS011;5200;43.236;27.986;2023-03-21T14:05:27;41.55;;;23.67;;
10309;SDS011;5200;43.236;27.986;2023-03-21T14:07:55;46.90;;;21.63;;
10309;SDS011;5200;43.236;27.986;2023-03-21T14:10:25;41.10;;;23.25;;
10309;SDS011;5200;43.236;27.986;2023-03-21T14:12:56;39.15;;;25.48;;
10309;SDS011;5200;43.236;27.986;2023-03-21T14:15:25;61.65;;;29.02;;
10309;SDS011;5200;43.236;27.986;2023-03-21T14:17:56;37.92;;;21.45;;
10309;SDS011;5200;43.236;27.986;2023-03-21T14:20:27;34.83;;;23.63;;
10309;SDS011;5200;43.236;27.986;2023-03-21T14:22:55;33.80;;;19.77;;
10309;SDS011;5200;43.236;27.986;2023-03-21T14:25:23;41.88;;;21.88;;
10309;SDS011;5200;43.236;27.986;2023-03-21T14:27:59;46.10;;;24.92;;
10309;SDS011;5200;43.236;27.986;2023-03-21T14:30:31;34.75;;;21.92;;
10309;SDS011;5200;43.236;27.986;2023-03-21T14:32:59;43.80;;;22.42;;
10309;SDS011;5200;43.236;27.986;2023-03-21T14:35:34;46.63;;;27.13;;
10309;SDS011;5200;43.236;27.986;2023-03-21T14:38:06;37.63;;;23.95;;
10309;SDS011;5200;43.236;27.986;2023-03-21T14:40:34;36.67;;;24.50;;
10309;SDS011;5200;43.236;27.986;2023-03-21T14:43:05;43.60;;;24.85;;
10309;SDS011;5200;43.236;27.986;2023-03-21T14:45:33;35.15;;;23.33;;
10309;SDS011;5200;43.236;27.986;2023-03-21T14:48:03;42.83;;;24.65;;
10309;SDS011;5200;43.236;27.986;2023-03-21T14:50:35;39.17;;;25.48;;
10309;SDS011;5200;43.236;27.986;2023-03-21T14:53:06;33.40;;;22.23;;
10309;SDS011;5200;43.236;27.986;2023-03-21T14:55:42;39.08;;;20.63;;
10309;SDS011;5200;43.236;27.986;2023-03-21T14:58:12;39.85;;;23.80;;
10309;SDS011;5200;43.236;27.986;2023-03-21T15:00:41;47.70;;;24.52;;